• Join FlightAware (Why Join?)
  • Login
  • US Flag 
05:17AM EDT


 

Airport Tracker/Info


-or-


 

Live Flight TrackerFlight Track Log ✈ DAL268 ✈ 02-Aug-2013 ✈ KJFK - LLBG / TLV

Flight Track Log - Related Links

Times and Time Zones

All times are in EDT time to prevent confusion due to time zone crossing. See the DAL268 flight status page for this flight to view local times or setup timezone preferences in your user account.

Time Position Orientation Groundspeed Altitude Reporting Facility
EDT Latitude Longitude Course Direction KTS MPH feet Rate Location/Type
12:32AM 40.6290 -73.7830 North  Level FlightAware
12:36AM 40.5325 -73.4642 114° Southeast  Level FlightAware Approximate
12:37AM 40.4792 -73.2916 123° Southeast  Level FlightAware Approximate
12:38AM 40.4226 -73.1192 119° Southeast  Level FlightAware Approximate
12:47AM 40.6320 -73.7750 213° Southwest 120 138  Level FlightAware
12:48AM 40.6190 -73.7850 210° Southwest 179 206 100 1,140 Climbing FlightAware
12:48AM 40.6050 -73.7960 211° Southwest 178 205 800 1,860 Climbing FlightAware
12:48AM 40.5850 -73.8100 208° Southwest 189 217 1,500 1,440 Climbing FlightAware
12:49AM 40.5750 -73.8140 197° South 208 239 1,700 1,080 Climbing FlightAware
12:49AM 40.5416 -73.7990 161° South 262 302 2,300 960 Climbing FlightAware ADS-B
12:49AM 40.5381 -73.7947 137° Southeast 265 305 2,300 1,020 Level FlightAware ADS-B
12:50AM 40.5254 -73.7681 122° Southeast 267 307 2,700 1,500 Climbing FlightAware ADS-B
12:50AM 40.5214 -73.7173 96° East 304 350 3,500 1,860 Climbing FlightAware ADS-B
12:50AM 40.5281 -73.6751 78° East 320 368 4,300 2,100 Climbing FlightAware ADS-B
12:51AM 40.5340 -73.6401 77° East 329 379 4,900 2,040 Climbing FlightAware ADS-B
12:51AM 40.5398 -73.6068 77° East 328 377 5,500 2,400 Climbing FlightAware ADS-B
12:51AM 40.5447 -73.5769 78° East 335 386 6,200 2,880 Climbing FlightAware ADS-B
12:51AM 40.5486 -73.5531 78° East 333 383 6,800 3,060 Climbing FlightAware ADS-B
12:52AM 40.5542 -73.5200 77° East 331 381 7,700 2,700 Climbing FlightAware ADS-B
12:52AM 40.5593 -73.4884 78° East 336 387 8,300 2,160 Climbing FlightAware ADS-B
12:52AM 40.5618 -73.4699 80° East 343 395 8,600 1,860 Climbing FlightAware ADS-B
12:52AM 40.5625 -73.4555 86° East 345 397 8,800 2,100 Climbing FlightAware ADS-B
12:52AM 40.5625 -73.4402 90° East 347 399 9,100 2,400 Climbing FlightAware ADS-B
12:53AM 40.5613 -73.4246 96° East 347 399 9,400 2,280 Climbing FlightAware ADS-B
12:53AM 40.5595 -73.4139 102° East 346 398 9,600 2,400 Climbing FlightAware ADS-B
12:53AM 40.5575 -73.4035 104° East 345 397 9,800 2,160 Climbing FlightAware ADS-B
12:53AM 40.5538 -73.3916 112° Southeast 345 397 10,000 1,740 Climbing FlightAware ADS-B
12:53AM 40.5452 -73.3715 119° Southeast 351 404 10,300 1,140 Climbing FlightAware ADS-B
12:53AM 40.5268 -73.3346 123° Southeast 373 429 10,600 1,380 Climbing FlightAware ADS-B
12:54AM 40.4972 -73.2638 119° Southeast 396 456 11,600 1,440 Climbing FlightAware ADS-B
12:54AM 40.4694 -73.1935 117° Southeast 422 486 12,200 1,200 Climbing FlightAware ADS-B
12:55AM 40.4545 -73.1560 118° Southeast 434 499 12,600 1,620 Climbing FlightAware ADS-B
12:55AM 40.4456 -73.1257 111° Southeast 442 509 13,000 1,860 Climbing FlightAware ADS-B
12:55AM 40.4413 -73.0984 102° East 449 517 13,300 1,680 Climbing FlightAware ADS-B
12:55AM 40.4406 -73.0892 96° East 451 519 13,400 1,860 Climbing FlightAware ADS-B
12:55AM 40.4421 -73.0464 87° East 457 526 13,900 1,920 Climbing FlightAware ADS-B
12:56AM 40.4489 -73.0134 75° East 460 529 14,300 1,980 Climbing FlightAware ADS-B
12:56AM 40.4565 -72.9910 66° East 461 531 14,600 2,100 Climbing FlightAware ADS-B
12:56AM 40.4891 -72.9125 61° Northeast 469 540 15,700 1,920 Climbing FlightAware ADS-B
12:57AM 40.5232 -72.8367 59° Northeast 477 549 16,600 2,160 Climbing FlightAware ADS-B
12:57AM 40.5572 -72.7622 59° Northeast 476 548 17,900 1,920 Climbing FlightAware ADS-B
12:58AM 40.5900 -72.6848 61° Northeast 488 562 18,600 1,860 Climbing FlightAware ADS-B
12:58AM 40.6169 -72.6141 63° Northeast 484 557 19,700 1,860 Climbing FlightAware ADS-B
12:59AM 40.6473 -72.5272 65° Northeast 497 572 20,400 1,620 Climbing FlightAware ADS-B
12:59AM 40.6835 -72.4233 65° Northeast 500 575 21,600 1,560 Climbing FlightAware ADS-B
01:00AM 40.7208 -72.3204 64° Northeast 500 575 22,400 1,380 Climbing FlightAware ADS-B
01:01AM 40.7527 -72.2341 64° Northeast 516 594 23,200 1,320 Climbing FlightAware ADS-B
01:01AM 40.7860 -72.1407 65° Northeast 527 606 23,800 1,200 Climbing FlightAware ADS-B
01:02AM 40.8190 -72.0440 66° East 535 616 24,500 1,020 Climbing FlightAware
01:02AM 40.8570 -71.9350 65° Northeast 547 629 25,000 1,020 Climbing FlightAware
01:03AM 40.8861 -71.8530 65° Northeast 551 634 25,600 600 Climbing FlightAware ADS-B
01:03AM 40.9230 -71.7490 65° Northeast 554 638 25,700 600 Climbing FlightAware
01:04AM 40.9810 -71.5820 65° Northeast 568 654 26,600 1,380 Climbing FlightAware
01:05AM 41.0185 -71.4770 65° Northeast 579 666 27,600 1,320 Climbing FlightAware ADS-B
01:05AM 41.0760 -71.3100 65° Northeast 587 676 28,400 1,080 Climbing FlightAware
01:06AM 41.1050 -71.2250 66° East 580 667 29,100 1,620 Climbing FlightAware
01:07AM 41.1490 -71.0980 65° Northeast 575 662 30,200 1,500 Climbing FlightAware
01:07AM 41.1940 -70.9690 65° Northeast 573 659 31,000 720 Climbing FlightAware
01:08AM 41.2320 -70.8570 66° East 575 662 31,100 60 Climbing FlightAware
01:09AM 41.2770 -70.7260 65° Northeast 568 654 31,100  Level FlightAware
01:09AM 41.3060 -70.6380 66° East 568 654 31,100  Level FlightAware
01:10AM 41.3390 -70.5400 66° East 568 654 31,100  Level FlightAware
01:10AM 41.3710 -70.4430 66° East 568 654 31,100  Level FlightAware
01:11AM 41.4060 -70.3390 66° East 568 654 31,100  Level FlightAware
01:11AM 41.4380 -70.2410 66° East 568 654 31,100  Level FlightAware
01:12AM 41.4700 -70.1460 66° East 568 654 31,100  Level FlightAware
01:13AM 41.5040 -70.0450 66° East 568 654 31,100  Level FlightAware
01:13AM 41.5370 -69.9470 66° East 568 654 31,100  Level FlightAware
01:14AM 41.5690 -69.8490 66° East 568 654 31,100  Level FlightAware
01:14AM 41.6020 -69.7510 66° East 568 654 31,100  Level FlightAware
01:15AM 41.6350 -69.6520 66° East 568 654 31,100  Level FlightAware
01:16AM 41.6650 -69.5600 66° East 568 654 31,100  Level FlightAware
01:16AM 41.6970 -69.4640 66° East 568 654 31,100  Level FlightAware
01:17AM 41.7300 -69.3650 66° East 568 654 31,100  Level FlightAware
01:18AM 41.8550 -68.9580 67° East 588 677 31,100  Level FlightAware
01:18AM 41.8870 -68.8560 67° East 588 677 31,100  Level FlightAware
01:19AM 41.9380 -68.6930 67° East 586 674 31,100  Level FlightAware
01:19AM 41.9670 -68.6000 67° East 587 676 31,100  Level FlightAware
01:20AM 42.0100 -68.4630 67° East 587 676 31,100  Level FlightAware
01:21AM 42.0560 -68.3180 67° East 587 676 31,100  Level FlightAware
01:21AM 42.0940 -68.1940 68° East 586 674 31,100  Level FlightAware
01:22AM 42.1250 -68.0940 67° East 586 674 31,100  Level FlightAware
01:22AM 42.1570 -67.9910 67° East 586 674 31,100  Level FlightAware
01:23AM 42.2100 -67.8160 68° East 584 672 31,100  Level FlightAware
01:24AM 42.2410 -67.7160 67° East 581 669 31,100  Level FlightAware
01:24AM 42.2720 -67.6100 68° East 581 669 31,100  Level FlightAware
01:25AM 42.3030 -67.5070 68° East 581 669 31,100  Level FlightAware
01:25AM 42.3340 -67.4040 68° East 581 669 31,100  Level FlightAware
01:26AM 42.3650 -67.3010 68° East 581 669 31,100  Level FlightAware
01:27AM 42.3960 -67.1980 68° East 581 669 31,100  Level FlightAware
01:28AM 42.4980 -66.8510 68° East 31,100  Level FlightAware
01:29AM 42.5350 -66.7230 69° East 579 666 31,100  Level FlightAware
01:29AM 42.5700 -66.6070 68° East 578 665 31,100  Level FlightAware
01:30AM 42.6140 -66.4590 68° East 578 665 31,100  Level FlightAware
01:31AM 42.6440 -66.3560 68° East 578 665 31,100  Level FlightAware
01:31AM 42.6930 -66.1800 69° East 576 663 31,100  Level FlightAware
01:32AM 42.7250 -66.0640 69° East 575 662 31,100  Level FlightAware
01:32AM 42.7600 -65.9360 70° East 575 662 31,100  Level FlightAware
01:33AM 42.7920 -65.8210 69° East 575 662 31,100  Level FlightAware
01:34AM 42.8300 -65.6810 70° East 575 662 31,100  Level FlightAware
01:34AM 42.8580 -65.5760 70° East 575 662 31,100  Level FlightAware
01:35AM 42.9060 -65.4090 69° East 574 661 31,100  Level FlightAware
01:36AM 42.9450 -65.2690 69° East 574 661 31,100  Level FlightAware
01:36AM 42.9740 -65.1610 70° East 568 654 31,100  Level FlightAware
01:37AM 43.0170 -65.0030 70° East 565 650 31,100  Level FlightAware
01:38AM 43.0390 -64.9200 70° East 564 649 31,100  Level FlightAware
01:38AM 43.0690 -64.8060 70° East 564 649 31,100  Level FlightAware
01:39AM 43.1100 -64.6560 69° East 565 650 31,100  Level FlightAware
01:39AM 43.1410 -64.5380 70° East 566 651 31,100  Level FlightAware
01:39AM 43.1450 -64.5240 69° East 566 651 31,100  Level FlightAware
01:41AM 43.2250 -64.2210 70° East 567 652 31,100  Level FlightAware
01:42AM 43.2580 -64.0970 70° East 568 654 31,100  Level FlightAware
01:42AM 43.2880 -63.9800 71° East 568 654 31,100  Level FlightAware
01:43AM 43.3160 -63.8740 70° East 568 654 31,100  Level FlightAware
01:43AM 43.3510 -63.7400 70° East 568 654 31,100  Level FlightAware
01:44AM 43.3800 -63.6260 71° East 568 654 31,100  Level FlightAware
01:44AM 43.4070 -63.5200 71° East 567 652 31,100  Level FlightAware
01:45AM 43.4450 -63.3730 70° East 568 654 31,100  Level FlightAware
01:46AM 43.4880 -63.2040 71° East 566 651 31,100  Level FlightAware
01:46AM 43.5160 -63.0930 71° East 565 650 31,100  Level FlightAware
01:47AM 43.5590 -62.9230 71° East 567 652 31,100  Level FlightAware
01:48AM 43.5850 -62.8180 71° East 567 652 31,100  Level FlightAware
01:49AM 43.6230 -62.6650 71° East 567 652 31,100  Level FlightAware
01:49AM 43.6580 -62.5210 71° East 567 652 31,100  Level FlightAware
01:50AM 43.6980 -62.3580 71° East 567 652 31,100  Level FlightAware
01:51AM 43.7270 -62.2420 71° East 566 651 31,100  Level FlightAware
01:51AM 43.7610 -62.0980 72° East 566 651 31,100  Level FlightAware
01:52AM 43.7880 -61.9830 72° East 566 651 31,100  Level FlightAware
01:53AM 43.8250 -61.8310 71° East 563 648 31,100  Level FlightAware
01:53AM 43.8500 -61.7260 72° East 563 648 31,100  Level FlightAware
01:54AM 43.8740 -61.6210 72° East 563 648 31,100  Level FlightAware
01:54AM 43.9000 -61.5130 71° East 563 648 31,100  Level FlightAware
01:55AM 43.9240 -61.4070 73° East 563 648 31,100  Level FlightAware
01:56AM 43.9560 -61.2700 72° East 563 648 31,100  Level FlightAware
01:56AM 43.9810 -61.1650 72° East 563 648 31,100  Level FlightAware
01:57AM 44.0050 -61.0590 72° East 563 648 31,100  Level FlightAware
01:58AM 44.0300 -60.9540 72° East 563 648 31,100  Level FlightAware
01:58AM 44.0550 -60.8480 72° East 563 648 31,100  Level FlightAware
01:59AM 44.0790 -60.7430 72° East 563 648 31,100  Level FlightAware
01:59AM 44.1040 -60.6370 72° East 563 648 31,100  Level FlightAware
02:00AM 44.1270 -60.5380 72° East 563 648 31,100  Level FlightAware
02:01AM 44.1520 -60.4320 72° East 563 648 31,100  Level FlightAware
02:01AM 44.1760 -60.3260 72° East 563 648 31,100  Level FlightAware
02:02AM 44.2680 -59.8860 74° East 585 673 31,100  Level FlightAware
02:02AM 44.2900 -59.7840 73° East 586 674 31,100  Level FlightAware
02:03AM 44.3130 -59.6800 73° East 586 674 31,100  Level FlightAware
02:04AM 44.3370 -59.5690 73° East 586 674 31,100  Level FlightAware
02:04AM 44.3610 -59.4580 73° East 586 674 31,100  Level FlightAware
02:05AM 44.4030 -59.2570 74° East 576 663 31,100  Level FlightAware
02:05AM 44.4290 -59.1330 74° East 574 661 31,100  Level FlightAware
02:06AM 44.4560 -59.0050 73° East 572 658 31,100  Level FlightAware
02:06AM 44.4790 -58.8910 74° East 571 657 31,100  Level FlightAware
02:07AM 44.5080 -58.7520 74° East 570 656 31,100  Level FlightAware
02:08AM 44.5320 -58.6380 74° East 569 655 31,100  Level FlightAware
02:08AM 44.5570 -58.5150 74° East 566 651 31,100  Level FlightAware
02:09AM 44.5830 -58.3870 74° East 566 651 31,100  Level FlightAware
02:09AM 44.6060 -58.2680 75° East 565 650 31,100  Level FlightAware
02:10AM 44.6320 -58.1390 74° East 565 650 31,100  Level FlightAware
02:11AM 44.6570 -58.0120 74° East 564 649 31,100  Level FlightAware
02:11AM 44.6800 -57.8990 74° East 562 647 31,100  Level FlightAware
02:12AM 44.7030 -57.7780 75° East 561 646 31,100  Level FlightAware
02:12AM 44.7260 -57.6650 74° East 561 646 31,100  Level FlightAware
02:13AM 44.7480 -57.5570 74° East 561 646 31,100  Level FlightAware
02:14AM 44.7700 -57.4500 74° East 561 646 31,100  Level FlightAware
02:14AM 44.7920 -57.3420 74° East 561 646 31,100  Level FlightAware
02:15AM 44.8140 -57.2320 74° East 561 646 31,100  Level FlightAware
02:15AM 44.8490 -57.0170 77° East 558 642 31,100  Level FlightAware
02:16AM 44.8700 -56.9100 74° East 558 642 31,100  Level FlightAware
02:17AM 44.8900 -56.8020 75° East 558 642 31,100  Level FlightAware
02:17AM 44.9310 -56.5770 75° East 555 639 31,100  Level FlightAware
02:18AM 44.9520 -56.4700 74° East 555 639 31,100  Level FlightAware
02:19AM 44.9720 -56.3620 75° East 555 639 31,100  Level FlightAware
02:19AM 44.9930 -56.2520 75° East 555 639 31,100  Level FlightAware
02:20AM 45.0130 -56.1450 75° East 555 639 31,100  Level FlightAware
02:20AM 45.0330 -56.0370 75° East 555 639 31,100  Level FlightAware
02:21AM 45.0540 -55.9300 74° East 555 639 31,100  Level FlightAware
02:22AM 45.0740 -55.8220 75° East 555 639 31,100  Level FlightAware
02:22AM 45.0950 -55.7090 75° East 555 639 31,100  Level FlightAware
02:23AM 45.1160 -55.6010 75° East 555 639 31,100  Level FlightAware
02:24AM 45.1360 -55.4940 75° East 555 639 31,100  Level FlightAware
02:24AM 45.1570 -55.3830 75° East 555 639 31,100  Level FlightAware
02:25AM 45.1770 -55.2760 75° East 555 639 31,100  Level FlightAware
02:25AM 45.1980 -55.1650 75° East 555 639 31,100  Level FlightAware
02:26AM 45.2190 -55.0570 75° East 555 639 31,100  Level FlightAware
02:27AM 45.2390 -54.9460 76° East 555 639 31,100 1,500 Level FlightAware
02:27AM 45.3120 -54.4960 77° East 552 635 33,100 1,620 Climbing FlightAware
02:28AM 45.3310 -54.3870 76° East 551 634 33,100  Level FlightAware
02:28AM 45.3550 -54.2510 76° East 551 634 33,100  Level FlightAware
02:29AM 45.3750 -54.1370 76° East 551 634 33,100  Level FlightAware
02:30AM 45.3930 -54.0300 76° East 551 634 33,100  Level FlightAware
02:30AM 45.4120 -53.9220 76° East 551 634 33,100  Level FlightAware
02:31AM 45.4310 -53.8140 76° East 551 634 33,100  Level FlightAware
02:31AM 45.4500 -53.7060 76° East 551 634 33,100  Level FlightAware
02:32AM 45.4690 -53.5980 76° East 551 634 33,100  Level FlightAware
02:33AM 45.4880 -53.4900 76° East 551 634 33,100  Level FlightAware
02:33AM 45.5070 -53.3790 76° East 551 634 33,100  Level FlightAware
02:34AM 45.5310 -53.2410 76° East 551 634 33,100  Level FlightAware
02:35AM 45.5500 -53.1330 76° East 551 634 33,100  Level FlightAware
02:35AM 45.5690 -53.0250 76° East 551 634 33,100  Level FlightAware
02:36AM 45.5880 -52.9170 76° East 551 634 33,100  Level FlightAware
02:36AM 45.6070 -52.8060 76° East 551 634 33,100  Level FlightAware
02:37AM 45.6260 -52.6980 76° East 551 634 33,100  Level FlightAware
02:38AM 45.6450 -52.5890 76° East 551 634 33,100  Level FlightAware
02:38AM 45.6640 -52.4780 76° East 551 634 33,100  Level FlightAware
02:39AM 45.7167 -51.9333 76° East 540 621 33,100  Level Gander Center
02:40AM 45.7333 -51.7000 84° East 550 633 33,100  Level Gander Center
02:41AM 45.7667 -51.5167 75° East 550 633 33,100  Level Gander Center
02:42AM 45.8000 -51.2833 78° East 550 633 33,100  Level Gander Center
02:43AM 45.8333 -51.0667 77° East 550 633 33,100  Level Gander Center
02:44AM 45.8667 -50.8667 76° East 540 621 33,100  Level Gander Center
02:45AM 45.9000 -50.6500 77° East 550 633 33,100  Level Gander Center
02:46AM 45.9167 -50.4500 83° East 550 633 33,100  Level Gander Center
02:47AM 45.9500 -50.2500 76° East 540 621 33,100  Level Gander Center
02:48AM 45.9833 -50.0167 78° East 540 621 33,100  Level Gander Center
02:49AM 46.0000 -49.8000 84° East 550 633 33,100 -60 Level Gander Center
02:51AM 46.0095 -49.5506 87° East  Level FlightAware Approximate
02:52AM 46.0000 -50.0000 86° East 543 625 33,000  Level ETMS Enhanced Traffic Management System
02:58AM 46.0549 -48.0526 87° East  Level FlightAware Approximate
02:59AM 46.0742 -47.8286 88° East 543 625 33,000  Level FlightAware Transoceanic
03:00AM 46.0794 -47.6112 88° East 543 625 33,000  Level FlightAware Transoceanic
03:01AM 46.0842 -47.3937 88° East 543 625 33,000  Level FlightAware Transoceanic
03:02AM 46.0885 -47.1762 88° East 543 625 33,000  Level FlightAware Transoceanic
03:03AM 46.0924 -46.9587 89° East 543 625 33,000  Level FlightAware Transoceanic
03:04AM 46.0959 -46.7411 89° East 543 625 33,000  Level FlightAware Transoceanic
03:05AM 46.0990 -46.5236 89° East 543 625 33,000  Level FlightAware Transoceanic
03:06AM 46.1017 -46.3060 89° East 543 625 33,000  Level FlightAware Transoceanic
03:07AM 46.1040 -46.0883 89° East 543 625 33,000  Level FlightAware Transoceanic
03:08AM 46.1058 -45.8707 89° East 543 625 33,000  Level FlightAware Transoceanic
03:09AM 46.1073 -45.6530 90° East 543 625 33,000  Level FlightAware Transoceanic
03:10AM 46.1083 -45.4353 90° East 543 625 33,000  Level FlightAware Transoceanic
03:11AM 46.1089 -45.2177 90° East 543 625 33,000  Level FlightAware Transoceanic
03:12AM 46.1091 -45.0000 90° East 543 625 33,000  Level FlightAware Transoceanic
03:13AM 46.1089 -44.7823 90° East 543 625 33,000  Level FlightAware Transoceanic
03:14AM 46.1083 -44.5647 90° East 543 625 33,000  Level FlightAware Transoceanic
03:15AM 46.1073 -44.3470 90° East 543 625 33,000  Level FlightAware Transoceanic
03:16AM 46.1058 -44.1293 91° East 543 625 33,000  Level FlightAware Transoceanic
03:17AM 46.1040 -43.9117 91° East 543 625 33,000  Level FlightAware Transoceanic
03:18AM 46.1017 -43.6940 91° East 543 625 33,000  Level FlightAware Transoceanic
03:19AM 46.0990 -43.4764 91° East 543 625 33,000  Level FlightAware Transoceanic
03:20AM 46.0959 -43.2589 91° East 543 625 33,000  Level FlightAware Transoceanic
03:21AM 46.0924 -43.0413 91° East 543 625 33,000  Level FlightAware Transoceanic
03:22AM 46.0885 -42.8238 92° East 543 625 33,000  Level FlightAware Transoceanic
03:23AM 46.0842 -42.6063 92° East 543 625 33,000  Level FlightAware Transoceanic
03:24AM 46.0794 -42.3888 92° East 543 625 33,000  Level FlightAware Transoceanic
03:25AM 46.0742 -42.1714 92° East 543 625 33,000  Level FlightAware Transoceanic
03:26AM 46.0687 -41.9540 92° East 543 625 33,000  Level FlightAware Transoceanic
03:27AM 46.0627 -41.7367 92° East 543 625 33,000  Level FlightAware Transoceanic
03:28AM 46.0563 -41.5194 93° East 543 625 33,000  Level FlightAware Transoceanic
03:29AM 46.0495 -41.3021 93° East 543 625 33,000  Level FlightAware Transoceanic
03:30AM 46.0423 -41.0850 93° East 543 625 33,000  Level FlightAware Transoceanic
03:31AM 46.0346 -40.8678 93° East 543 625 33,000  Level FlightAware Transoceanic
03:32AM 46.0266 -40.6508 93° East 543 625 33,000  Level FlightAware Transoceanic
03:33AM 46.0181 -40.4338 93° East 543 625 33,000  Level FlightAware Transoceanic
03:34AM 46.0093 -40.2169 93° East 543 625 33,000  Level FlightAware Transoceanic
03:35AM 46.0001 -40.0032 93° East  Level FlightAware Approximate
03:36AM 45.9905 -39.7896 94° East  Level FlightAware Approximate
03:37AM 46.0088 -39.7926 86° East  Level FlightAware Approximate
03:37AM 46.0000 -40.0000 86° East 555 639 33,000  Level ETMS Enhanced Traffic Management System
03:38AM 46.0174 -39.5788 87° East  Level FlightAware Approximate
03:39AM 46.0256 -39.3650 87° East  Level FlightAware Approximate
03:40AM 46.0334 -39.1511 87° East  Level FlightAware Approximate
03:41AM 46.0408 -38.9371 87° East  Level FlightAware Approximate
03:42AM 46.0479 -38.7231 87° East  Level FlightAware Approximate
03:43AM 46.0638 -38.2247 88° East 555 639 33,000  Level FlightAware Transoceanic
03:44AM 46.0698 -38.0025 88° East 555 639 33,000  Level FlightAware Transoceanic
03:45AM 46.0754 -37.7803 88° East 555 639 33,000  Level FlightAware Transoceanic
03:46AM 46.0806 -37.5580 88° East 555 639 33,000  Level FlightAware Transoceanic
03:47AM 46.0854 -37.3357 88° East 555 639 33,000  Level FlightAware Transoceanic
03:48AM 46.0897 -37.1134 88° East 555 639 33,000  Level FlightAware Transoceanic
03:49AM 46.0936 -36.8910 89° East 555 639 33,000  Level FlightAware Transoceanic
03:50AM 46.0970 -36.6686 89° East 555 639 33,000  Level FlightAware Transoceanic
03:51AM 46.1000 -36.4462 89° East 555 639 33,000  Level FlightAware Transoceanic
03:52AM 46.1026 -36.2237 89° East 555 639 33,000  Level FlightAware Transoceanic
03:53AM 46.1048 -36.0013 89° East 555 639 33,000  Level FlightAware Transoceanic
03:54AM 46.1065 -35.7788 89° East 555 639 33,000  Level FlightAware Transoceanic
03:55AM 46.1078 -35.5563 90° East 555 639 33,000  Level FlightAware Transoceanic
03:56AM 46.1087 -35.3338 90° East 555 639 33,000  Level FlightAware Transoceanic
03:57AM 46.1091 -35.1113 90° East 555 639 33,000  Level FlightAware Transoceanic
03:58AM 46.1091 -34.8887 90° East 555 639 33,000  Level FlightAware Transoceanic
03:59AM 46.1087 -34.6662 90° East 555 639 33,000  Level FlightAware Transoceanic
04:00AM 46.1078 -34.4437 90° East 555 639 33,000  Level FlightAware Transoceanic
04:01AM 46.1065 -34.2212 91° East 555 639 33,000  Level FlightAware Transoceanic
04:02AM 46.1048 -33.9987 91° East 555 639 33,000  Level FlightAware Transoceanic
04:03AM 46.1026 -33.7763 91° East 555 639 33,000  Level FlightAware Transoceanic
04:04AM 46.1000 -33.5538 91° East 555 639 33,000  Level FlightAware Transoceanic
04:05AM 46.0970 -33.3314 91° East 555 639 33,000  Level FlightAware Transoceanic
04:06AM 46.0936 -33.1090 91° East 555 639 33,000  Level FlightAware Transoceanic
04:07AM 46.0897 -32.8866 92° East 555 639 33,000  Level FlightAware Transoceanic
04:08AM 46.0854 -32.6643 92° East 555 639 33,000  Level FlightAware Transoceanic
04:09AM 46.0806 -32.4420 92° East 555 639 33,000  Level FlightAware Transoceanic
04:10AM 46.0754 -32.2197 92° East 555 639 33,000  Level FlightAware Transoceanic
04:11AM 46.0698 -31.9975 92° East 555 639 33,000  Level FlightAware Transoceanic
04:12AM 46.0638 -31.7753 92° East 555 639 33,000  Level FlightAware Transoceanic
04:13AM 46.0573 -31.5532 92° East 555 639 33,000  Level FlightAware Transoceanic
04:14AM 46.0504 -31.3311 93° East 555 639 33,000  Level FlightAware Transoceanic
04:15AM 46.0431 -31.1091 93° East 555 639 33,000  Level FlightAware Transoceanic
04:16AM 46.0353 -30.8871 93° East 555 639 33,000  Level FlightAware Transoceanic
04:17AM 46.0271 -30.6653 93° East 555 639 33,000  Level FlightAware Transoceanic
04:18AM 46.0185 -30.4434 93° East 555 639 33,000  Level FlightAware Transoceanic
04:19AM 46.0095 -30.2217 93° East 555 639 33,000  Level FlightAware Transoceanic
04:20AM 46.0004 -30.0080 93° East  Level FlightAware Approximate
04:21AM 45.9908 -29.7944 94° East  Level FlightAware Approximate
04:22AM 45.9881 -29.8027 95° East  Level FlightAware Approximate
04:23AM 45.9749 -29.5895 95° East  Level FlightAware Approximate
04:24AM 45.9613 -29.3764 95° East  Level FlightAware Approximate
04:24AM 46.0000 -30.0000 95° East 566 651 33,000  Level ETMS Enhanced Traffic Management System
04:25AM 45.9473 -29.1635 95° East  Level FlightAware Approximate
04:26AM 45.9329 -28.9506 95° East  Level FlightAware Approximate
04:27AM 45.9182 -28.7379 96° East  Level FlightAware Approximate
04:28AM 45.9039 -28.5252 95° East  Level FlightAware Approximate
04:29AM 45.8894 -28.3125 96° East  Level FlightAware Approximate
04:30AM 45.8703 -27.9739 96° East 566 651 33,000  Level FlightAware Transoceanic
04:31AM 45.8537 -27.7493 96° East 566 651 33,000  Level FlightAware Transoceanic
04:32AM 45.8367 -27.5250 96° East 566 651 33,000  Level FlightAware Transoceanic
04:33AM 45.8192 -27.3007 96° East 566 651 33,000  Level FlightAware Transoceanic
04:34AM 45.8013 -27.0766 97° East 566 651 33,000  Level FlightAware Transoceanic
04:35AM 45.7829 -26.8527 97° East 566 651 33,000  Level FlightAware Transoceanic
04:36AM 45.7641 -26.6289 97° East 566 651 33,000  Level FlightAware Transoceanic
04:37AM 45.7449 -26.4052 97° East 566 651 33,000  Level FlightAware Transoceanic
04:38AM 45.7252 -26.1817 97° East 566 651 33,000  Level FlightAware Transoceanic
04:39AM 45.7051 -25.9584 97° East 566 651 33,000  Level FlightAware Transoceanic
04:40AM 45.6845 -25.7353 98° East 566 651 33,000  Level FlightAware Transoceanic
04:41AM 45.6635 -25.5123 98° East 566 651 33,000  Level FlightAware Transoceanic
04:42AM 45.6421 -25.2894 98° East 566 651 33,000  Level FlightAware Transoceanic
04:43AM 45.6203 -25.0667 98° East 566 651 33,000  Level FlightAware Transoceanic
04:44AM 45.5980 -24.8443 98° East 566 651 33,000  Level FlightAware Transoceanic
04:45AM 45.5753 -24.6220 98° East 566 651 33,000  Level FlightAware Transoceanic
04:46AM 45.5522 -24.3998 99° East 566 651 33,000  Level FlightAware Transoceanic
04:47AM 45.5286 -24.1779 99° East 566 651 33,000  Level FlightAware Transoceanic
04:48AM 45.5046 -23.9561 99° East 566 651 33,000  Level FlightAware Transoceanic
04:49AM 45.4801 -23.7346 99° East 566 651 33,000  Level FlightAware Transoceanic
04:50AM 45.4553 -23.5132 99° East 566 651 33,000  Level FlightAware Transoceanic
04:51AM 45.4300 -23.2920 99° East 566 651 33,000  Level FlightAware Transoceanic
04:52AM 45.4043 -23.0711 99° East 566 651 33,000  Level FlightAware Transoceanic
04:53AM 45.3782 -22.8503 100° East 566 651 33,000  Level FlightAware Transoceanic
04:54AM 45.3516 -22.6297 100° East 566 651 33,000  Level FlightAware Transoceanic
04:55AM 45.3246 -22.4093 100° East 566 651 33,000  Level FlightAware Transoceanic
04:56AM 45.2972 -22.1892 100° East 566 651 33,000  Level FlightAware Transoceanic
04:57AM 45.2694 -21.9693 100° East 566 651 33,000  Level FlightAware Transoceanic
04:58AM 45.2411 -21.7496 100° East 566 651 33,000  Level FlightAware Transoceanic
04:59AM 45.2124 -21.5301 101° East 566 651 33,000  Level FlightAware Transoceanic
05:00AM 45.1833 -21.3108 101° East 566 651 33,000  Level FlightAware Transoceanic
05:01AM 45.1538 -21.0917 101° East 566 651 33,000  Level FlightAware Transoceanic
05:02AM 45.1239 -20.8729 101° East 566 651 33,000  Level FlightAware Transoceanic
05:03AM 45.0935 -20.6544 101° East 566 651 33,000  Level FlightAware Transoceanic
05:04AM 45.0628 -20.4360 101° East 566 651 33,000  Level FlightAware Transoceanic
05:05AM 45.0316 -20.2179 102° East 566 651 33,000  Level FlightAware Transoceanic
05:06AM 45.0017 -20.0118 102° East  Level FlightAware Approximate
05:07AM 44.9715 -19.8059 102° East  Level FlightAware Approximate
05:08AM 44.9665 -19.8199 105° East  Level FlightAware Approximate
05:09AM 44.9284 -19.6168 105° East  Level FlightAware Approximate
05:10AM 44.8907 -19.4179 105° East  Level FlightAware Approximate
05:11AM 44.8526 -19.2193 105° East  Level FlightAware Approximate
05:12AM 44.8142 -19.0209 105° East  Level FlightAware Approximate
05:13AM 44.7755 -18.8228 105° East  Level FlightAware Approximate
05:14AM 44.7364 -18.6249 105° East  Level FlightAware Approximate
05:15AM 44.6969 -18.4273 106° East  Level FlightAware Approximate
05:16AM 44.6571 -18.2300 106° East  Level FlightAware Approximate
05:17AM 44.6170 -18.0329 106° East  Level FlightAware Approximate
05:18AM 44.5773 -17.8358 106° East  Level FlightAware Approximate
05:19AM 44.5378 -17.6388 106° East  Level FlightAware Approximate
05:20AM 44.4980 -17.4420 106° East  Level FlightAware Approximate
05:21AM 44.4579 -17.2455 106° East  Level FlightAware Approximate
05:22AM 44.4174 -17.0493 106° East  Level FlightAware Approximate
05:23AM 44.3766 -16.8533 106° East  Level FlightAware Approximate
05:24AM 44.3354 -16.6577 106° East  Level FlightAware Approximate
05:25AM 44.2939 -16.4623 106° East  Level FlightAware Approximate
05:26AM 44.2521 -16.2671 107° East  Level FlightAware Approximate
05:27AM 44.2100 -16.0723 107° East  Level FlightAware Approximate
05:28AM 44.1677 -15.8777 107° East  Level FlightAware Approximate
05:29AM 44.1253 -15.6832 107° East  Level FlightAware Approximate
05:30AM 44.0826 -15.4890 107° East  Level FlightAware Approximate
05:31AM 44.0395 -15.2951 107° East  Level FlightAware Approximate
05:32AM 43.9961 -15.1014 107° East  Level FlightAware Approximate
05:33AM 43.9524 -14.9081 107° East  Level FlightAware Approximate
05:34AM 43.9084 -14.7150 108° East  Level FlightAware Approximate
05:35AM 43.8641 -14.5223 108° East  Level FlightAware Approximate
05:36AM 43.8194 -14.3298 108° East  Level FlightAware Approximate
05:37AM 43.7744 -14.1376 108° East  Level FlightAware Approximate
05:38AM 43.7290 -13.9457 108° East  Level FlightAware Approximate
05:39AM 43.6834 -13.7541 108° East  Level FlightAware Approximate
05:40AM 43.6375 -13.5628 108° East  Level FlightAware Approximate
05:41AM 43.5912 -13.3717 108° East  Level FlightAware Approximate
05:41AM 43.4670 -12.6750 109° East 555 639 35,100  Level FlightAware
05:41AM 43.4560 -12.5620 98° East 555 639 35,100  Level FlightAware
05:42AM 43.5446 -13.1810 109° East  Level FlightAware Approximate
05:42AM 43.4400 -12.4220 99° East 551 634 35,100  Level FlightAware
05:43AM 43.4260 -12.2890 98° East 551 634 35,100  Level FlightAware
05:44AM 43.4030 -12.0870 99° East 550 633 35,100  Level FlightAware
05:45AM 43.3820 -11.8950 98° East 549 632 35,100 60 Level FlightAware
05:45AM 43.3820 -11.8950 98° East 550 633 35,200 420 Climbing FlightAware
05:46AM 43.3560 -11.6700 99° East 441 507 35,600 600 Climbing FlightAware
05:47AM 43.3340 -11.4780 99° East 557 641 36,100 300 Climbing FlightAware
05:47AM 43.3190 -11.3480 99° East 557 641 36,100  Level FlightAware
05:48AM 43.3050 -11.2290 99° East 557 641 36,100  Level FlightAware
05:49AM 43.3100 -11.2710 279° West 558 642 36,100  Level FlightAware
05:49AM 43.2720 -10.9480 99° East 561 646 36,100  Level FlightAware
05:50AM 43.2610 -10.8390 98° East 563 648 36,100  Level FlightAware
05:50AM 43.2480 -10.7050 98° East 564 649 36,100  Level FlightAware
05:51AM 43.2350 -10.5820 98° East 563 648 36,100  Level FlightAware
05:51AM 43.2220 -10.4620 98° East 562 647 36,100  Level FlightAware
05:52AM 43.2080 -10.3400 99° East 559 643 36,100  Level FlightAware
05:53AM 43.1940 -10.2150 99° East 558 642 36,100  Level FlightAware
05:53AM 43.1790 -10.0900 99° East 556 640 36,100  Level FlightAware
05:54AM 43.1640 -9.9720 100° East 555 639 36,100  Level FlightAware
05:54AM 43.1480 -9.8500 100° East 554 638 36,100  Level FlightAware
05:55AM 43.1320 -9.7280 100° East 553 636 36,100  Level FlightAware
05:55AM 43.1160 -9.6070 100° East 552 635 36,100  Level FlightAware
05:56AM 43.1000 -9.4900 101° East 551 634 36,100  Level FlightAware
05:57AM 43.0830 -9.3710 101° East 548 631 36,100  Level FlightAware
05:57AM 43.0680 -9.2560 100° East 547 629 36,100  Level FlightAware
05:58AM 43.0500 -9.1310 101° East 544 626 36,100  Level FlightAware
05:58AM 43.0360 -9.0360 101° East 543 625 36,100  Level FlightAware
05:59AM 43.0170 -8.8960 100° East 542 624 36,100  Level FlightAware
05:59AM 43.0040 -8.8080 101° East 541 623 36,100  Level FlightAware
06:00AM 42.9750 -8.6080 101° East 536 617 36,100  Level FlightAware
06:01AM 42.9560 -8.4760 101° East 536 617 36,100  Level FlightAware
06:02AM 42.9440 -8.3580 98° East 539 620 36,100  Level FlightAware
06:02AM 42.9360 -8.2450 95° East 542 624 36,100  Level FlightAware
06:03AM 42.9340 -8.1880 93° East 542 624 36,100  Level FlightAware
06:04AM 42.9210 -7.9400 94° East 543 625 36,100  Level FlightAware
06:04AM 42.9120 -7.7990 95° East 544 626 36,100  Level FlightAware
06:05AM 42.9060 -7.7060 95° East 545 627 36,100  Level FlightAware
06:05AM 42.8970 -7.5760 95° East 546 628 36,100  Level FlightAware
06:06AM 42.8880 -7.4460 95° East 547 629 36,100  Level FlightAware
06:07AM 42.8800 -7.3230 95° East 549 632 36,100  Level FlightAware
06:07AM 42.8710 -7.2070 96° East 550 633 36,100  Level FlightAware
06:08AM 42.8630 -7.0870 95° East 551 634 36,100  Level FlightAware
06:08AM 42.8540 -6.9650 96° East 551 634 36,100  Level FlightAware
06:09AM 42.8450 -6.8410 96° East 550 633 36,100  Level FlightAware
06:10AM 42.8360 -6.7210 96° East 548 631 36,100  Level FlightAware
06:10AM 42.8270 -6.6000 96° East 547 629 36,100  Level FlightAware
06:11AM 42.8170 -6.4810 96° East 548 631 36,100  Level FlightAware
06:11AM 42.8090 -6.3770 96° East 548 631 36,100  Level FlightAware
06:12AM 42.7990 -6.2550 96° East 548 631 36,100  Level FlightAware
06:12AM 42.7900 -6.1480 97° East 548 631 36,100  Level FlightAware
06:13AM 42.7800 -6.0260 96° East 549 632 36,100  Level FlightAware
06:14AM 42.7690 -5.8920 96° East 549 632 36,100  Level FlightAware
06:14AM 42.7600 -5.7870 97° East 547 629 36,100  Level FlightAware
06:15AM 42.7500 -5.6740 97° East 546 628 36,100  Level FlightAware
06:15AM 42.7390 -5.5500 97° East 546 628 36,100  Level FlightAware
06:16AM 42.7270 -5.4120 97° East 546 628 36,100  Level FlightAware
06:16AM 42.7180 -5.3130 97° East 546 628 36,100  Level FlightAware
06:17AM 42.7090 -5.2050 96° East 546 628 36,100  Level FlightAware
06:18AM 42.6930 -5.0360 97° East 545 627 36,100  Level FlightAware
06:18AM 42.6830 -4.9290 97° East 546 628 36,100  Level FlightAware
06:19AM 42.6720 -4.8110 97° East 545 627 36,100  Level FlightAware
06:20AM 42.6550 -4.6290 97° East 545 627 36,100  Level FlightAware
06:21AM 42.6410 -4.4900 98° East 543 625 36,100  Level FlightAware
06:21AM 42.6290 -4.3750 98° East 542 624 36,100  Level FlightAware
06:22AM 42.6170 -4.2520 98° East 542 624 36,100  Level FlightAware
06:22AM 42.6060 -4.1370 97° East 541 623 36,100  Level FlightAware
06:22AM 42.6040 -4.1180 98° East 541 623 36,100  Level FlightAware
06:23AM 42.5810 -3.8980 98° East 542 624 36,100  Level FlightAware
06:24AM 42.5700 -3.7860 98° East 541 623 36,100  Level FlightAware
06:25AM 42.5560 -3.6630 99° East 539 620 36,100  Level FlightAware
06:25AM 42.5280 -3.5340 106° East 535 616 36,100  Level FlightAware
06:26AM 42.5020 -3.4250 108° East 534 615 36,100  Level FlightAware
06:26AM 42.4750 -3.3130 108° East 536 617 36,100  Level FlightAware
06:27AM 42.4480 -3.2000 108° East 535 616 36,100  Level FlightAware
06:28AM 42.4210 -3.0880 108° East 534 615 36,100  Level FlightAware
06:28AM 42.3950 -2.9780 108° East 533 613 36,100  Level FlightAware
06:29AM 42.3680 -2.8700 109° East 532 612 36,100  Level FlightAware
06:29AM 42.3410 -2.7580 108° East 534 615 36,100  Level FlightAware
06:30AM 42.3210 -2.6510 104° East 533 613 36,100  Level FlightAware
06:31AM 42.3010 -2.5370 103° East 534 615 36,100  Level FlightAware
06:31AM 42.2830 -2.4310 103° East 534 615 36,100  Level FlightAware
06:32AM 42.2530 -2.2600 103° East 532 612 36,100  Level FlightAware
06:33AM 42.2350 -2.1520 103° East 531 611 36,100  Level FlightAware
06:33AM 42.2150 -2.0340 103° East 531 611 36,100  Level FlightAware
06:34AM 42.1920 -1.9040 103° East 530 610 36,100  Level FlightAware
06:34AM 42.1700 -1.7740 103° East 529 609 36,100  Level FlightAware
06:35AM 42.1550 -1.6880 103° East 528 608 36,100  Level FlightAware
06:36AM 42.1310 -1.5510 103° East 528 608 36,100  Level FlightAware
06:36AM 42.1000 -1.3790 104° East 529 609 36,100  Level FlightAware
06:37AM 42.0810 -1.2710 103° East 529 609 36,100  Level FlightAware
06:38AM 42.0600 -1.1560 104° East 529 609 36,100  Level FlightAware
06:38AM 42.0430 -1.0550 103° East 529 609 36,100  Level FlightAware
06:39AM 42.0180 -0.9260 105° East 527 606 36,100  Level FlightAware
06:40AM 41.9970 -0.8070 103° East 526 605 36,100  Level FlightAware
06:40AM 41.9810 -0.7090 102° East 526 605 36,100  Level FlightAware
06:41AM 41.9470 -0.5350 105° East 522 601 36,100  Level FlightAware
06:42AM 41.9260 -0.4220 104° East 522 601 36,100  Level FlightAware
06:42AM 41.9040 -0.3040 104° East 523 602 36,100  Level FlightAware
06:43AM 41.8730 -0.1740 108° East 521 600 36,100  Level FlightAware
06:43AM 41.8510 -0.0710 106° East 521 600 36,100  Level FlightAware
06:45AM 41.8020 0.1300 108° East 526 605 36,100  Level FlightAware
06:45AM 41.7690 0.2720 107° East 526 605 36,100  Level FlightAware
06:46AM 41.7440 0.3770 108° East 526 605 36,100  Level FlightAware
06:47AM 41.7240 0.4670 107° East 526 605 36,100  Level FlightAware
06:47AM 41.7020 0.5620 107° East 526 605 36,100  Level FlightAware
06:49AM 41.6170 0.8960 109° East 524 603 36,100  Level FlightAware
06:49AM 41.5880 1.0060 109° East 528 608 36,100  Level FlightAware
06:50AM 41.5600 1.1150 109° East 533 613 36,100  Level FlightAware
06:50AM 41.5310 1.2350 108° East 539 620 36,100  Level FlightAware
06:51AM 41.5050 1.3510 107° East 542 624 36,100  Level FlightAware
06:52AM 41.4820 1.4540 107° East 543 625 36,100  Level FlightAware
06:52AM 41.4550 1.5690 107° East 543 625 36,100  Level FlightAware
06:53AM 41.4280 1.6820 108° East 541 623 36,100  Level FlightAware
06:53AM 41.4020 1.7820 109° East 536 617 36,100  Level FlightAware
06:54AM 41.3710 1.9010 109° East 533 613 36,100  Level FlightAware
06:55AM 41.3410 2.0110 110° East 532 612 36,100  Level FlightAware
06:55AM 41.3170 2.1100 108° East 532 612 36,100  Level FlightAware
06:56AM 41.2950 2.2260 104° East 533 613 36,100  Level FlightAware
06:56AM 41.2760 2.3430 102° East 532 612 36,100  Level FlightAware
06:57AM 41.2590 2.4580 101° East 530 610 36,100  Level FlightAware
06:57AM 41.2450 2.5510 101° East 530 610 36,100  Level FlightAware
06:58AM 41.2260 2.6740 102° East 529 609 36,100  Level FlightAware
06:59AM 41.2080 2.7870 102° East 528 608 36,100  Level FlightAware
06:59AM 41.1910 2.8880 103° East 528 608 36,100  Level FlightAware
06:59AM 41.1810 2.9510 102° East 529 609 36,100  Level FlightAware
07:00AM 41.1560 3.0920 103° East 529 609 36,100  Level FlightAware
07:01AM 41.1370 3.2060 102° East 529 609 36,100  Level FlightAware
07:01AM 41.1140 3.3340 103° East 530 610 36,100  Level FlightAware
07:02AM 41.0970 3.4300 103° East 531 611 36,100  Level FlightAware
07:02AM 41.0900 3.4700 103° East 530 610 36,100  Level FlightAware
07:03AM 41.0620 3.6260 103° East 531 611 36,100  Level FlightAware
07:04AM 41.0420 3.7370 103° East 529 609 36,100  Level FlightAware
07:04AM 41.0220 3.8510 103° East 529 609 36,100  Level FlightAware
07:05AM 41.0020 3.9630 103° East 529 609 36,100  Level FlightAware
07:05AM 40.9840 4.0650 103° East 530 610 36,100  Level FlightAware
07:06AM 40.9650 4.1750 103° East 530 610 36,100  Level FlightAware
07:07AM 40.9470 4.2750 103° East 529 609 36,100  Level FlightAware
07:07AM 40.9210 4.4160 104° East 527 606 36,100  Level FlightAware
07:08AM 40.9000 4.5310 104° East 526 605 36,100  Level FlightAware
07:08AM 40.8840 4.6160 104° East 525 604 36,100  Level FlightAware
07:09AM 40.8660 4.7440 100° East 525 604 36,100  Level FlightAware
07:10AM 40.8580 4.8520 96° East 524 603 36,100  Level FlightAware
07:10AM 40.8500 4.9520 96° East 524 603 36,100  Level FlightAware
07:11AM 40.8390 5.0730 97° East 522 601 36,100  Level FlightAware
07:11AM 40.8310 5.1730 96° East 522 601 36,100  Level FlightAware
07:12AM 40.8120 5.3450 98° East 523 602 36,100  Level FlightAware
07:13AM 40.8030 5.4450 97° East 523 602 36,100  Level FlightAware
07:13AM 40.7940 5.5420 97° East 523 602 36,100  Level FlightAware
07:14AM 40.7760 5.7050 98° East 36,100  Level FlightAware
07:15AM 40.7600 5.8560 98° East 523 602 36,100  Level FlightAware
07:15AM 40.7490 5.9660 97° East 522 601 36,100  Level FlightAware
07:16AM 40.7380 6.0760 97° East 522 601 36,100  Level FlightAware
07:17AM 40.7270 6.1870 97° East 521 600 36,100  Level FlightAware
07:17AM 40.7160 6.2950 98° East 519 597 36,100  Level FlightAware
07:18AM 40.7040 6.4060 98° East 518 596 36,100  Level FlightAware
07:18AM 40.6930 6.5130 98° East 517 595 36,100  Level FlightAware
07:19AM 40.6810 6.6260 98° East 516 594 36,100  Level FlightAware
07:19AM 40.6700 6.7320 98° East 517 595 36,100  Level FlightAware
07:20AM 40.6510 6.9040 98° East 517 595 36,100  Level FlightAware
07:21AM 40.6390 7.0110 98° East 517 595 36,100  Level FlightAware
07:22AM 40.6240 7.1470 98° East 517 595 36,100  Level FlightAware
07:22AM 40.6130 7.2430 99° East 516 594 36,100  Level FlightAware
07:23AM 40.6040 7.3280 98° East 515 593 36,100 720 Level FlightAware
07:23AM 40.5890 7.4630 98° East 512 589 37,000 840 Climbing FlightAware
07:24AM 40.5750 7.5760 99° East 513 590 37,100 60 Climbing FlightAware
07:25AM 40.5620 7.6840 99° East 507 583 37,100  Level FlightAware
07:25AM 40.5500 7.7890 99° East 505 581 37,100  Level FlightAware
07:26AM 40.5370 7.8970 99° East 505 581 37,100  Level FlightAware
07:26AM 40.5240 8.0020 99° East 503 579 37,100  Level FlightAware
07:27AM 40.5130 8.0910 99° East 502 578 37,100  Level FlightAware
07:28AM 40.4960 8.2270 99° East 500 575 37,100  Level FlightAware
07:28AM 40.4830 8.3330 99° East 501 577 37,100  Level FlightAware
07:29AM 40.4680 8.4520 99° East 501 577 37,100  Level FlightAware
07:29AM 40.4560 8.5430 100° East 502 578 37,100  Level FlightAware
07:30AM 40.4420 8.6500 100° East 502 578 37,100  Level FlightAware
07:30AM 40.4290 8.7530 99° East 502 578 37,100  Level FlightAware
07:31AM 40.4130 8.8720 100° East 502 578 37,100  Level FlightAware
07:32AM 40.4010 8.9620 100° East 501 577 37,100  Level FlightAware
07:32AM 40.3870 9.0690 100° East 500 575 37,100  Level FlightAware
07:33AM 40.3730 9.1710 100° East 498 573 37,100  Level FlightAware
07:33AM 40.3550 9.2930 101° East 497 572 37,100  Level FlightAware
07:34AM 40.3430 9.3800 100° East 497 572 37,100  Level FlightAware
07:35AM 40.3270 9.4850 101° East 496 571 37,100  Level FlightAware
07:35AM 40.3130 9.5870 100° East 496 571 37,100  Level FlightAware
07:36AM 40.2980 9.6930 100° East 497 572 37,100  Level FlightAware
07:36AM 40.2830 9.7950 101° East 497 572 37,100  Level FlightAware
07:37AM 40.2680 9.8980 101° East 496 571 37,100  Level FlightAware
07:38AM 40.2510 10.0160 101° East 495 570 37,100  Level FlightAware
07:38AM 40.2380 10.1060 101° East 493 567 37,100  Level FlightAware
07:39AM 40.2240 10.2060 100° East 493 567 37,100  Level FlightAware
07:39AM 40.2080 10.3130 101° East 493 567 37,100  Level FlightAware
07:40AM 40.1920 10.4260 100° East 491 565 37,100  Level FlightAware
07:40AM 40.1780 10.5150 102° East 491 565 37,100  Level FlightAware
07:41AM 40.1610 10.6320 101° East 491 565 37,100  Level FlightAware
07:42AM 40.1480 10.7200 101° East 491 565 37,100  Level FlightAware
07:42AM 40.1330 10.8200 101° East 490 564 37,100  Level FlightAware
07:43AM 40.1170 10.9240 101° East 489 563 37,100  Level FlightAware
07:43AM 40.1000 11.0390 101° East 489 563 37,100  Level FlightAware
07:44AM 40.0860 11.1280 102° East 489 563 37,100  Level FlightAware
07:44AM 40.0710 11.2260 101° East 488 562 37,100  Level FlightAware
07:45AM 40.0550 11.3290 101° East 487 560 37,100  Level FlightAware
07:46AM 40.0370 11.4430 102° East 486 559 37,100  Level FlightAware
07:46AM 40.0230 11.5300 102° East 486 559 37,100  Level FlightAware
07:47AM 40.0080 11.6280 101° East 485 558 37,100  Level FlightAware
07:47AM 39.9900 11.7420 102° East 485 558 37,100  Level FlightAware
07:48AM 39.9740 11.8390 102° East 485 558 37,100  Level FlightAware
07:49AM 39.9570 11.9420 102° East 485 558 37,100  Level FlightAware
07:49AM 39.9410 12.0410 102° East 485 558 37,100  Level FlightAware
07:50AM 39.9260 12.1330 102° East 485 558 37,100  Level FlightAware
07:50AM 39.9100 12.2340 102° East 484 557 37,100  Level FlightAware
07:51AM 39.8920 12.3390 103° East 484 557 37,100  Level FlightAware
07:52AM 39.8760 12.4420 101° East 483 556 37,100  Level FlightAware
07:52AM 39.8570 12.5550 102° East 482 555 37,100  Level FlightAware
07:53AM 39.8400 12.6570 102° East 482 555 37,100  Level FlightAware
07:53AM 39.8220 12.7660 102° East 481 554 37,100  Level FlightAware
07:54AM 39.8060 12.8550 103° East 481 554 37,100  Level FlightAware
07:55AM 39.7880 12.9560 103° East 481 554 37,100  Level FlightAware
07:55AM 39.7700 13.0590 103° East 481 554 37,100  Level FlightAware
07:56AM 39.7530 13.1600 102° East 482 555 37,100  Level FlightAware
07:56AM 39.7370 13.2500 103° East 482 555 37,100  Level FlightAware
07:57AM 39.7190 13.3520 103° East 482 555 37,100  Level FlightAware
07:57AM 39.7020 13.4510 103° East 482 555 37,100  Level FlightAware
07:58AM 39.6850 13.5430 103° East 481 554 37,100  Level FlightAware
07:59AM 39.6670 13.6440 103° East 481 554 37,100  Level FlightAware
07:59AM 39.6490 13.7470 103° East 481 554 37,100  Level FlightAware
08:00AM 39.6320 13.8440 103° East 480 552 37,100  Level FlightAware
08:00AM 39.6150 13.9350 104° East 480 552 37,100  Level FlightAware
08:01AM 39.5960 14.0430 103° East 479 551 37,100  Level FlightAware
08:02AM 39.5780 14.1410 103° East 480 552 37,100  Level FlightAware
08:02AM 39.5620 14.2310 103° East 479 551 37,100  Level FlightAware
08:03AM 39.5440 14.3340 103° East 480 552 37,100  Level FlightAware
08:03AM 39.5260 14.4340 103° East 480 552 37,100  Level FlightAware
08:04AM 39.5070 14.5420 103° East 481 554 37,100  Level FlightAware
08:05AM 39.4890 14.6430 103° East 483 556 37,100  Level FlightAware
08:05AM 39.4700 14.7400 104° East 483 556 37,100  Level FlightAware
08:06AM 39.4520 14.8340 104° East 484 557 37,100  Level FlightAware
08:06AM 39.4320 14.9420 103° East 484 557 37,100  Level FlightAware
08:07AM 39.4150 15.0310 104° East 483 556 37,100  Level FlightAware
08:07AM 39.3960 15.1290 104° East 485 558 37,100  Level FlightAware
08:08AM 39.3760 15.2300 104° East 486 559 37,100  Level FlightAware
08:09AM 39.3560 15.3370 104° East 487 560 37,100  Level FlightAware
08:09AM 39.3380 15.4290 104° East 487 560 37,100  Level FlightAware
08:10AM 39.3180 15.5330 104° East 489 563 37,100  Level FlightAware
08:10AM 39.3010 15.6200 104° East 490 564 37,100  Level FlightAware
08:11AM 39.2850 15.7030 104° East 490 564 37,100  Level FlightAware
08:11AM 39.2640 15.8060 105° East 493 567 37,100  Level FlightAware
08:12AM 39.2390 15.9330 104° East 494 568 37,100  Level FlightAware
08:13AM 39.2240 16.0120 104° East 495 570 37,100  Level FlightAware
08:13AM 39.1980 16.1360 105° East 495 570 37,100  Level FlightAware
08:14AM 39.1750 16.2380 106° East 494 568 37,100  Level FlightAware
08:14AM 39.1550 16.3290 106° East 493 567 37,100  Level FlightAware
08:15AM 39.1320 16.4320 106° East 492 566 37,100  Level FlightAware
08:16AM 39.1100 16.5310 106° East 493 567 37,100  Level FlightAware
08:16AM 39.0870 16.6320 106° East 493 567 37,100  Level FlightAware
08:17AM 39.0660 16.7280 106° East 495 570 37,100  Level FlightAware
08:17AM 39.0460 16.8160 106° East 496 571 37,100  Level FlightAware
08:18AM 39.0190 16.9360 106° East 497 572 37,100  Level FlightAware
08:19AM 39.0010 17.0180 106° East 498 573 37,100  Level FlightAware
08:19AM 38.9750 17.1320 106° East 499 574 37,100  Level FlightAware
08:20AM 38.9510 17.2350 107° East 500 575 37,100  Level FlightAware
08:20AM 38.9300 17.3280 106° East 501 577 37,100  Level FlightAware
08:21AM 38.9070 17.4300 106° East 502 578 37,100  Level FlightAware
08:22AM 38.8830 17.5310 107° East 502 578 37,100  Level FlightAware
08:22AM 38.8590 17.6370 106° East 503 579 37,100  Level FlightAware
08:23AM 38.8380 17.7280 106° East 504 580 37,100  Level FlightAware
08:23AM 38.8130 17.8320 107° East 504 580 37,100  Level FlightAware
08:24AM 38.7900 17.9340 106° East 504 580 37,100  Level FlightAware
08:24AM 38.7660 18.0350 107° East 503 579 37,100  Level FlightAware
08:25AM 38.7440 18.1260 107° East 501 577 37,100  Level FlightAware
08:26AM 38.7200 18.2280 107° East 498 573 37,100  Level FlightAware
08:26AM 38.6950 18.3300 107° East 497 572 37,100  Level FlightAware
08:27AM 38.6710 18.4310 107° East 496 571 37,100  Level FlightAware
08:27AM 38.6500 18.5210 107° East 495 570 37,100  Level FlightAware
08:28AM 38.6250 18.6220 108° East 495 570 37,100  Level FlightAware
08:29AM 38.6020 18.7200 107° East 496 571 37,100  Level FlightAware
08:29AM 38.5800 18.8120 107° East 497 572 37,100  Level FlightAware
08:30AM 38.5580 18.9030 107° East 499 574 37,100  Level FlightAware
08:30AM 38.5450 18.9560 107° East 500 575 37,100  Level FlightAware
08:31AM 38.5220 19.0500 107° East 500 575 37,100  Level FlightAware
08:32AM 38.4730 19.2000 113° Southeast 503 579 37,100  Level FlightAware
08:32AM 38.4290 19.3470 111° Southeast 507 583 37,100  Level FlightAware
08:33AM 38.4010 19.4440 110° East 507 583 37,100  Level FlightAware
08:34AM 38.3730 19.5420 110° East 507 583 37,100  Level FlightAware
08:34AM 38.3400 19.6520 111° Southeast 507 583 37,100  Level FlightAware
08:35AM 38.3060 19.7680 110° East 508 585 37,100  Level FlightAware
08:36AM 38.2760 19.8690 111° Southeast 508 585 37,100  Level FlightAware
08:36AM 38.2490 19.9590 111° Southeast 510 587 37,100  Level FlightAware
08:37AM 38.2200 20.0540 111° Southeast 510 587 37,100  Level FlightAware
08:37AM 38.1850 20.1730 110° East 511 588 37,100  Level FlightAware
08:38AM 38.1500 20.2850 112° Southeast 508 585 37,100  Level FlightAware
08:39AM 38.1240 20.3700 111° Southeast 508 585 37,100  Level FlightAware
08:39AM 38.0990 20.4550 110° East 508 585 37,100  Level FlightAware
08:40AM 38.0800 20.5170 111° Southeast 508 585 37,100  Level FlightAware
08:40AM 38.0540 20.6020 111° Southeast 508 585 37,100  Level FlightAware
08:41AM 37.9880 20.8060 112° Southeast 513 590 37,100  Level FlightAware
08:42AM 37.9560 20.9120 111° Southeast 513 590 37,100  Level FlightAware
08:42AM 37.9290 21.0020 111° Southeast 513 590 37,100  Level FlightAware
08:43AM 37.8790 21.1520 113° Southeast 518 596 37,100  Level FlightAware
08:44AM 37.8460 21.2560 112° Southeast 521 600 37,100  Level FlightAware
08:44AM 37.8100 21.3690 112° Southeast 524 603 37,100  Level FlightAware
08:45AM 37.7780 21.4710 112° Southeast 525 604 37,100  Level FlightAware
08:46AM 37.7260 21.6330 112° Southeast 632 727 37,100  Level FlightAware
08:47AM 37.6810 21.7700 113° Southeast 531 611 37,100  Level FlightAware
08:47AM 37.6470 21.8790 111° Southeast 530 610 37,100  Level FlightAware
08:48AM 37.6170 21.9670 113° Southeast 550 633 37,100  Level FlightAware
08:49AM 37.5740 22.1050 111° Southeast 527 606 37,100  Level FlightAware
08:50AM 37.5260 22.2510 112° Southeast 528 608 37,100  Level FlightAware
08:50AM 37.4930 22.3450 114° Southeast 530 610 37,100  Level FlightAware
08:51AM 37.4530 22.4690 112° Southeast 533 613 37,100  Level FlightAware
08:51AM 37.4240 22.5570 113° Southeast 531 611 37,100  Level FlightAware
08:52AM 37.3890 22.6640 112° Southeast 530 610 37,100  Level FlightAware
08:52AM 37.3550 22.7680 112° Southeast 533 613 37,100  Level FlightAware
08:53AM 37.3210 22.8690 113° Southeast 533 613 37,100  Level FlightAware
08:54AM 37.2880 22.9670 113° Southeast 532 612 37,100  Level FlightAware
08:54AM 37.2510 23.0770 113° Southeast 531 611 37,100  Level FlightAware
08:55AM 37.2210 23.1650 113° Southeast 532 612 37,100  Level FlightAware
08:55AM 37.1880 23.2630 113° Southeast 531 611 37,100  Level FlightAware
08:56AM 37.1530 23.3650 113° Southeast 531 611 37,100  Level FlightAware
08:57AM 37.1190 23.4640 113° Southeast 532 612 37,100  Level FlightAware
08:57AM 37.0830 23.5680 113° Southeast 532 612 37,100  Level FlightAware
08:58AM 37.0520 23.6580 113° Southeast 533 613 37,100  Level FlightAware
08:58AM 37.0110 23.7800 113° Southeast 533 613 37,100  Level FlightAware
08:59AM 36.9770 23.8780 113° Southeast 532 612 37,100  Level FlightAware
09:00AM 36.9400 23.9820 114° Southeast 531 611 37,100  Level FlightAware
09:00AM 36.9040 24.0820 114° Southeast 530 610 37,100  Level FlightAware
09:01AM 36.8680 24.1840 114° Southeast 530 610 37,100  Level FlightAware
09:01AM 36.8360 24.2720 114° Southeast 528 608 37,100  Level FlightAware
09:02AM 36.8000 24.3730 114° Southeast 528 608 37,100  Level FlightAware
09:03AM 36.7640 24.4730 114° Southeast 527 606 37,100  Level FlightAware
09:03AM 36.7320 24.5620 114° Southeast 527 606 37,100  Level FlightAware
09:04AM 36.6960 24.6600 115° Southeast 527 606 37,100  Level FlightAware
09:04AM 36.6580 24.7670 114° Southeast 528 608 37,100  Level FlightAware
09:05AM 36.6250 24.8570 115° Southeast 528 608 37,100  Level FlightAware
09:05AM 36.5890 24.9550 115° Southeast 528 608 37,100  Level FlightAware
09:06AM 36.5520 25.0540 115° Southeast 529 609 37,100  Level FlightAware
09:07AM 36.5150 25.1530 115° Southeast 529 609 37,100  Level FlightAware
09:07AM 36.4830 25.2410 114° Southeast 529 609 37,100  Level FlightAware
09:08AM 36.4480 25.3350 115° Southeast 530 610 37,100  Level FlightAware
09:08AM 36.4070 25.4460 115° Southeast 530 610 37,100  Level FlightAware
09:09AM 36.3740 25.5340 115° Southeast 529 609 37,100  Level FlightAware
09:10AM 36.3370 25.6320 115° Southeast 530 610 37,100  Level FlightAware
09:10AM 36.3010 25.7310 114° Southeast 530 610 37,100  Level FlightAware
09:11AM 36.2670 25.8210 115° Southeast 531 611 37,100  Level FlightAware
09:11AM 36.2320 25.9150 115° Southeast 532 612 37,100  Level FlightAware
09:12AM 36.1920 26.0220 115° Southeast 531 611 37,100  Level FlightAware
09:12AM 36.1580 26.1140 115° Southeast 531 611 37,100  Level FlightAware
09:13AM 36.1200 26.2140 115° Southeast 531 611 37,100  Level FlightAware
09:14AM 36.0830 26.3110 115° Southeast 531 611 37,100  Level FlightAware
09:14AM 36.0490 26.4010 115° Southeast 531 611 37,100  Level FlightAware
09:15AM 36.0090 26.5040 116° Southeast 531 611 37,100  Level FlightAware
09:15AM 35.9710 26.6020 116° Southeast 531 611 37,100  Level FlightAware
09:16AM 35.9380 26.6900 115° Southeast 531 611 37,100  Level FlightAware
09:17AM 35.9000 26.7880 116° Southeast 530 610 37,100  Level FlightAware
09:17AM 35.8600 26.8920 115° Southeast 530 610 37,100  Level FlightAware
09:18AM 35.8240 26.9840 116° Southeast 531 611 37,100  Level FlightAware
09:19AM 35.7490 27.1730 116° Southeast 531 611 37,100  Level FlightAware
09:19AM 35.7250 27.2360 115° Southeast 531 611 37,100  Level FlightAware
09:20AM 35.6830 27.3480 115° Southeast 531 611 37,100  Level FlightAware
09:21AM 35.6510 27.4320 115° Southeast 531 611 37,100  Level FlightAware
09:21AM 35.6190 27.5180 115° Southeast 531 611 37,100  Level FlightAware
09:22AM 35.5870 27.6020 115° Southeast 531 611 37,100  Level FlightAware
09:22AM 35.5760 27.6300 116° Southeast 531 611 37,100  Level FlightAware
09:23AM 35.5180 27.7830 115° Southeast 531 611 37,100  Level FlightAware
09:24AM 35.4850 27.8690 115° Southeast 531 611 37,100  Level FlightAware
09:25AM 35.4530 27.9530 115° Southeast 531 611 37,100  Level FlightAware
09:25AM 35.4220 28.0360 115° Southeast 531 611 37,100  Level FlightAware
09:26AM 35.3900 28.1200 115° Southeast 531 611 37,100  Level FlightAware
09:26AM 35.3580 28.2030 115° Southeast 531 611 37,100  Level FlightAware
09:27AM 35.3260 28.2870 115° Southeast 531 611 37,100  Level FlightAware
09:28AM 35.2950 28.3700 115° Southeast 531 611 37,100  Level FlightAware
09:28AM 35.2630 28.4540 115° Southeast 531 611 37,100  Level FlightAware
09:28AM 35.1420 28.6910 122° Southeast 37,100  Level FlightAware
09:29AM 35.0830 28.8390 116° Southeast 519 597 37,100  Level FlightAware
09:30AM 35.0520 28.9200 115° Southeast 519 597 37,100  Level FlightAware
09:31AM 34.9970 29.0440 118° Southeast 521 600 37,100  Level FlightAware
09:31AM 34.9610 29.1380 115° Southeast 521 600 37,100  Level FlightAware
09:32AM 34.9300 29.2190 115° Southeast 521 600 37,100  Level FlightAware
09:32AM 34.8790 29.3300 119° Southeast 519 597 37,100  Level FlightAware
09:33AM 34.8350 29.4410 116° Southeast 519 597 37,100  Level FlightAware
09:34AM 34.7830 29.5620 118° Southeast 518 596 37,100  Level FlightAware
09:34AM 34.7500 29.6410 117° Southeast 518 596 37,100  Level FlightAware
09:35AM 34.7050 29.7470 117° Southeast 519 597 37,100 -120 Level FlightAware
09:36AM 34.6660 29.8390 117° Southeast 519 597 37,000 -660 Descending FlightAware
09:36AM 34.6360 29.9110 117° Southeast 518 596 36,400 -480 Descending FlightAware
09:37AM 34.5910 30.0250 116° Southeast 518 596 36,400  Level FlightAware
09:38AM 34.5570 30.1070 117° Southeast 518 596 36,400  Level FlightAware
09:38AM 34.5250 30.1870 116° Southeast 518 596 36,400 -1,200 Level FlightAware
09:39AM 34.4460 30.3000 130° Southeast 512 589 35,100 -1,140 Descending FlightAware
09:39AM 34.3960 30.4040 120° Southeast 513 590 35,100  Level FlightAware
09:40AM 34.3490 30.5040 120° Southeast 513 590 35,100  Level FlightAware
09:41AM 34.3060 30.5930 120° Southeast 514 592 35,100  Level FlightAware
09:41AM 34.2590 30.6920 120° Southeast 516 594 35,100  Level FlightAware
09:42AM 34.2230 30.7670 120° Southeast 516 594 35,100  Level FlightAware
09:42AM 34.1810 30.8540 120° Southeast 517 595 35,100  Level FlightAware
09:43AM 34.1380 30.9430 120° Southeast 517 595 35,100  Level FlightAware
09:44AM 34.0910 31.0420 120° Southeast 516 594 35,100  Level FlightAware
09:44AM 34.0540 31.1180 120° Southeast 516 594 35,100  Level FlightAware
09:45AM 34.0120 31.2050 120° Southeast 516 594 35,100  Level FlightAware
09:45AM 33.9640 31.3040 120° Southeast 516 594 35,100  Level FlightAware
09:46AM 33.9260 31.3800 121° Southeast 515 593 35,100  Level FlightAware
09:47AM 33.8840 31.4670 120° Southeast 516 594 35,100  Level FlightAware
09:47AM 33.8420 31.5530 120° Southeast 516 594 35,100  Level FlightAware
09:48AM 33.7990 31.6420 120° Southeast 516 594 35,100  Level FlightAware
09:48AM 33.7570 31.7280 120° Southeast 516 594 35,100  Level FlightAware
09:49AM 33.7130 31.8170 121° Southeast 515 593 35,100  Level FlightAware
09:49AM 33.6720 31.9000 121° Southeast 515 593 35,100  Level FlightAware
09:50AM 33.6270 31.9900 121° Southeast 513 590 35,100  Level FlightAware
09:51AM 33.5800 32.0850 121° Southeast 512 589 35,100  Level FlightAware
09:51AM 33.5380 32.1700 121° Southeast 511 588 35,100  Level FlightAware
09:52AM 33.4920 32.2630 121° Southeast 511 588 35,100  Level FlightAware
09:53AM 33.4430 32.3620 121° Southeast 511 588 35,100  Level FlightAware
09:53AM 33.3890 32.4690 121° Southeast 511 588 35,100  Level FlightAware
09:54AM 33.3440 32.5590 121° Southeast 511 588 35,100  Level FlightAware
09:55AM 33.3040 32.6390 121° Southeast 510 587 35,100 -480 Level FlightAware
09:55AM 33.2500 32.7450 121° Southeast 490 564 34,500 -1,620 Descending FlightAware
09:56AM 33.2040 32.8350 121° Southeast 484 557 32,900 -2,460 Descending FlightAware
09:56AM 33.1630 32.9150 121° Southeast 484 557 31,600 -2,220 Descending FlightAware
09:57AM 33.1220 32.9970 121° Southeast 476 548 30,300 -2,220 Descending FlightAware
09:58AM 33.0650 33.1070 122° Southeast 464 534 28,500 -2,340 Descending FlightAware
09:58AM 33.0260 33.1840 121° Southeast 455 524 27,200 -1,920 Descending FlightAware
09:59AM 32.9880 33.2470 126° Southeast 445 512 26,200 -1,920 Descending FlightAware
10:00AM 32.9380 33.3320 125° Southeast 425 489 24,900 -1,860 Descending FlightAware
10:00AM 32.9010 33.3930 126° Southeast 416 479 24,000 -1,680 Descending FlightAware
10:01AM 32.8650 33.4570 124° Southeast 407 468 23,000 -1,800 Descending FlightAware
10:01AM 32.8230 33.5290 125° Southeast 415 478 21,900 -1,800 Descending FlightAware
10:02AM 32.7870 33.5910 125° Southeast 418 481 20,900 -1,740 Descending FlightAware
10:03AM 32.7470 33.6600 125° Southeast 403 464 19,900 -1,680 Descending FlightAware
10:03AM 32.7130 33.7180 125° Southeast 393 452 19,000 -1,680 Descending FlightAware
10:04AM 32.6740 33.7830 125° Southeast 379 436 18,000 -1,680 Descending FlightAware
10:04AM 32.6380 33.8450 125° Southeast 367 422 17,000 -1,620 Descending FlightAware
10:05AM 32.6080 33.8960 125° Southeast 357 411 16,200 -1,500 Descending FlightAware
10:06AM 32.5740 33.9530 125° Southeast 346 398 15,300 -1,500 Descending FlightAware
10:06AM 32.5390 34.0130 125° Southeast 341 392 14,400 -1,500 Descending FlightAware
10:07AM 32.5030 34.0730 125° Southeast 346 398 13,400 -1,440 Descending FlightAware
10:07AM 32.4720 34.1250 125° Southeast 348 400 12,600 -1,440 Descending FlightAware
10:08AM 32.4330 34.1910 125° Southeast 335 386 11,600 -1,440 Descending FlightAware
10:09AM 32.4030 34.2390 127° Southeast 320 368 10,900 -1,260 Descending FlightAware
10:09AM 32.3660 34.2970 127° Southeast 302 348 10,000 -1,260 Descending FlightAware
10:10AM 32.3540 34.3170 125° Southeast 299 344 9,700 -1,200 Descending FlightAware
10:10AM 32.3390 34.3450 122° Southeast 293 337 9,300 -1,260 Descending FlightAware
10:10AM 32.3200 34.3770 125° Southeast 290 334 8,800 -1,200 Descending FlightAware
10:11AM 32.3170 34.3830 121° Southeast 288 331 8,700 -1,200 Descending FlightAware
10:11AM 32.2940 34.4220 125° Southeast 283 326 8,100 -1,200 Descending FlightAware
10:11AM 32.2830 34.4400 126° Southeast 281 323 7,800 -1,200 Descending FlightAware
10:12AM 32.2640 34.4700 127° Southeast 277 319 7,300 -1,080 Descending FlightAware
10:12AM 32.2530 34.4890 124° Southeast 281 323 7,100 -600 Descending FlightAware
10:12AM 32.2420 34.5090 123° Southeast 282 325 7,000 -480 Descending FlightAware
10:13AM 32.2300 34.5320 122° Southeast 280 322 6,800 -600 Descending FlightAware
10:13AM 32.2100 34.5680 123° Southeast 278 320 6,600 -780 Descending FlightAware
10:14AM 32.1770 34.6310 122° Southeast 256 295 5,900 -900 Descending FlightAware
10:14AM 32.1630 34.6560 123° Southeast 245 282 5,500 -1,080 Descending FlightAware
10:15AM 32.1490 34.6840 121° Southeast 244 281 5,100 -480 Descending FlightAware
10:15AM 32.1380 34.7040 123° Southeast 241 277 5,100 60 Level FlightAware
10:15AM 32.1180 34.7420 122° Southeast 242 278 5,200 120 Climbing FlightAware
10:16AM 32.1070 34.7620 123° Southeast 242 278 5,200  Level FlightAware
10:16AM 32.0960 34.7820 123° Southeast 242 278 5,200  Level FlightAware
10:16AM 32.0860 34.7950 132° Southeast 241 277 5,200 -600 Level FlightAware
10:17AM 32.0720 34.8100 138° Southeast 234 269 4,900 -840 Descending FlightAware
10:17AM 32.0580 34.8250 138° Southeast 226 260 4,700 -300 Descending FlightAware
10:17AM 32.0410 34.8440 137° Southeast 211 243 4,700  Level FlightAware
10:18AM 32.0260 34.8620 135° Southeast 209 241 4,700 -540 Level FlightAware
10:18AM 32.0080 34.8820 137° Southeast 198 228 4,300 -1,020 Descending FlightAware
10:18AM 32.0030 34.8910 123° Southeast 195 224 4,100 -1,320 Descending FlightAware
10:18AM 32.0000 34.9050 104° East 193 222 3,800 -1,500 Descending FlightAware
10:19AM 32.0040 34.9250 77° East 182 209 3,300 -1,320 Descending FlightAware
10:19AM 32.0080 34.9450 77° East 174 200 2,800 -1,500 Descending FlightAware
10:19AM 32.0120 34.9620 74° East 175 201 2,300 -960 Descending FlightAware
10:20AM 32.0380 34.9820 33° Northeast 164 189 1,700 -840 Descending FlightAware
10:21AM 32.0500 34.9720 325° Northwest 164 189 1,300 -1,320 Descending FlightAware
10:21AM 32.0520 34.9590 280° West 161 185 1,100 -840 Descending FlightAware
10:21AM 32.0520 34.9500 270° West 154 177 900 -300 Descending FlightAware
10:22AM 32.0500 34.9310 263° West 154 177 900  Level FlightAware